createdAt,value
2023-03-24T00:01:21.649Z,58.84
2023-03-24T00:03:51.375Z,58.95
2023-03-24T00:06:21.973Z,58.98
2023-03-24T00:08:49.888Z,58.98
2023-03-24T00:11:18.938Z,59.02
2023-03-24T00:13:48.722Z,59.24
2023-03-24T00:16:18.851Z,59.40
2023-03-24T00:18:48.517Z,59.54
2023-03-24T00:21:17.778Z,59.53
2023-03-24T00:23:47.207Z,59.59
2023-03-24T00:26:16.090Z,59.65
2023-03-24T00:28:47.439Z,59.81
2023-03-24T00:31:17.554Z,59.93
2023-03-24T00:33:50.623Z,60.07
2023-03-24T00:36:22.593Z,60.21
2023-03-24T00:38:50.531Z,60.21
2023-03-24T00:41:19.760Z,60.54
2023-03-24T00:43:49.773Z,60.64
2023-03-24T00:46:27.612Z,60.77
2023-03-24T00:49:04.987Z,61.05
2023-03-24T00:51:38.047Z,61.08
2023-03-24T00:54:09.042Z,61.18
2023-03-24T00:56:39.940Z,61.32
2023-03-24T00:59:09.433Z,61.36
2023-03-24T01:01:39.047Z,61.41
2023-03-24T01:04:07.298Z,61.42
2023-03-24T01:06:37.768Z,61.54
2023-03-24T01:09:07.257Z,61.61
2023-03-24T01:11:40.713Z,61.75
2023-03-24T01:14:10.678Z,61.82
2023-03-24T01:16:39.098Z,61.91
2023-03-24T01:19:08.728Z,61.98
2023-03-24T01:21:38.338Z,62.12
2023-03-24T01:24:07.200Z,62.16
2023-03-24T01:26:35.458Z,62.27
2023-03-24T01:29:03.675Z,62.35
2023-03-24T01:31:31.813Z,62.32
2023-03-24T01:33:59.732Z,62.36
2023-03-24T01:36:27.650Z,62.37
2023-03-24T01:38:57.340Z,62.32
2023-03-24T01:41:27.856Z,62.27
2023-03-24T01:43:56.155Z,62.23
2023-03-24T01:46:26.004Z,62.12
2023-03-24T01:48:59.365Z,62.07
2023-03-24T01:51:35.379Z,62.08
2023-03-24T01:54:17.938Z,62.18
2023-03-24T01:56:53.954Z,62.13
2023-03-24T01:59:27.242Z,62.12
2023-03-24T02:01:59.399Z,62.14
2023-03-24T02:04:42.698Z,62.13
2023-03-24T02:07:31.835Z,62.18
2023-03-24T02:10:08.127Z,62.01
2023-03-24T02:12:42.959Z,61.89
2023-03-24T02:15:14.660Z,61.65
2023-03-24T02:18:13.176Z,61.56
2023-03-24T02:21:12.025Z,61.61
2023-03-24T02:24:19.168Z,61.54
2023-03-24T02:27:22.829Z,61.46
2023-03-24T02:30:18.684Z,61.47
2023-03-24T02:33:13.836Z,61.53
2023-03-24T02:36:02.615Z,61.61
2023-03-24T02:38:56.231Z,61.70
2023-03-24T02:41:52.180Z,61.74
2023-03-24T02:44:31.040Z,61.74
2023-03-24T02:47:32.468Z,61.93
2023-03-24T02:50:26.866Z,61.98
2023-03-24T02:53:28.961Z,62.27
2023-03-24T02:56:22.573Z,62.37
2023-03-24T02:59:02.908Z,62.49
2023-03-24T03:01:40.680Z,62.80
2023-03-24T03:04:33.369Z,63.05
2023-03-24T03:07:05.807Z,63.20
2023-03-24T03:09:37.976Z,63.57
2023-03-24T03:12:10.016Z,63.71
2023-03-24T03:14:45.974Z,63.87
2023-03-24T03:17:18.675Z,64.19
2023-03-24T03:20:04.683Z,64.41
2023-03-24T03:23:01.911Z,64.56
2023-03-24T03:25:35.379Z,64.58
2023-03-24T03:28:06.647Z,64.78
2023-03-24T03:30:58.654Z,64.92
2023-03-24T03:33:40.466Z,64.92
2023-03-24T03:36:13.731Z,64.95
2023-03-24T03:39:16.665Z,64.88
2023-03-24T03:41:47.290Z,64.86
2023-03-24T03:44:15.476Z,64.78
2023-03-24T03:46:43.482Z,64.86
2023-03-24T03:49:13.228Z,65.10
2023-03-24T03:51:41.160Z,65.02
2023-03-24T03:54:12.499Z,65.03
2023-03-24T03:56:42.630Z,65.04
2023-03-24T03:59:29.049Z,65.25
2023-03-24T04:01:57.881Z,65.43
2023-03-24T04:04:53.283Z,65.49
2023-03-24T04:07:39.155Z,65.45
2023-03-24T04:10:52.325Z,65.59
2023-03-24T04:14:13.481Z,65.54
2023-03-24T04:17:25.488Z,65.54
2023-03-24T04:20:14.861Z,65.49
2023-03-24T04:23:08.947Z,65.47
2023-03-24T04:25:58.291Z,65.50
2023-03-24T04:28:42.936Z,65.68
2023-03-24T04:31:34.450Z,65.49
2023-03-24T04:34:20.306Z,65.52
2023-03-24T04:36:56.990Z,65.53
2023-03-24T04:39:30.164Z,65.52
2023-03-24T04:42:04.156Z,65.53
2023-03-24T04:44:33.293Z,65.47
2023-03-24T04:47:22.537Z,65.32
2023-03-24T04:50:01.849Z,65.24
2023-03-24T04:52:30.318Z,65.16
2023-03-24T04:55:00.137Z,65.10
2023-03-24T04:57:27.870Z,65.03
2023-03-24T05:00:00.769Z,64.95
2023-03-24T05:02:28.684Z,64.97
2023-03-24T05:05:02.368Z,65.02
2023-03-24T05:07:32.491Z,65.10
2023-03-24T05:10:01.915Z,65.17
2023-03-24T05:12:30.831Z,65.24
2023-03-24T05:15:01.104Z,65.41
2023-03-24T05:17:29.164Z,65.49
2023-03-24T05:19:56.907Z,65.59
2023-03-24T05:22:25.150Z,65.61
2023-03-24T05:24:52.775Z,65.76
2023-03-24T05:27:20.975Z,65.76
2023-03-24T05:29:48.685Z,65.82
2023-03-24T05:32:17.997Z,65.80
2023-03-24T05:34:45.735Z,65.79
2023-03-24T05:37:16.963Z,65.78
2023-03-24T05:39:46.460Z,65.79
2023-03-24T05:42:16.999Z,65.78
2023-03-24T05:44:45.247Z,65.77
2023-03-24T05:47:16.113Z,65.72
2023-03-24T05:49:44.236Z,65.73
2023-03-24T05:52:15.371Z,65.72
2023-03-24T05:54:45.568Z,65.59
2023-03-24T05:57:16.249Z,65.51
2023-03-24T05:59:48.858Z,65.38
2023-03-24T06:02:21.492Z,65.15
2023-03-24T06:04:51.330Z,64.82
2023-03-24T06:07:21.766Z,64.50
2023-03-24T06:09:51.503Z,64.57
2023-03-24T06:12:21.132Z,64.58
2023-03-24T06:14:51.211Z,64.37
2023-03-24T06:17:20.717Z,64.18
2023-03-24T06:19:51.082Z,64.26
2023-03-24T06:22:38.244Z,63.92
2023-03-24T06:25:09.311Z,63.77
2023-03-24T06:27:37.872Z,63.81
2023-03-24T06:30:08.040Z,63.44
2023-03-24T06:32:36.141Z,63.30
2023-03-24T06:35:04.242Z,63.06
2023-03-24T06:37:42.966Z,63.09
2023-03-24T06:40:15.118Z,63.07
2023-03-24T06:42:44.777Z,63.09
2023-03-24T06:45:12.613Z,63.09
2023-03-24T06:47:40.205Z,62.98
2023-03-24T06:50:09.971Z,62.83
2023-03-24T06:52:37.833Z,62.57
2023-03-24T06:55:07.783Z,62.31
2023-03-24T06:57:35.425Z,62.29
2023-03-24T07:00:11.420Z,61.90
2023-03-24T07:02:42.333Z,61.71
2023-03-24T07:05:10.562Z,61.32
2023-03-24T07:10:33.344Z,61.02
2023-03-24T07:13:02.789Z,60.68
2023-03-24T07:15:30.989Z,60.92
2023-03-24T07:17:58.781Z,60.62
2023-03-24T07:20:42.070Z,59.41
2023-03-24T07:23:14.768Z,59.28
2023-03-24T07:25:44.445Z,58.77
2023-03-24T07:28:14.302Z,58.50
2023-03-24T07:30:42.601Z,58.00
2023-03-24T07:33:12.077Z,57.89
2023-03-24T07:35:41.243Z,57.85
2023-03-24T07:38:11.661Z,57.23
2023-03-24T07:40:39.215Z,56.99
2023-03-24T07:43:06.943Z,56.38
2023-03-24T07:45:36.506Z,56.34
2023-03-24T07:48:05.210Z,55.46
2023-03-24T07:50:34.914Z,55.61
2023-03-24T07:53:04.842Z,55.96
2023-03-24T07:55:32.799Z,56.35
2023-03-24T07:58:02.252Z,54.45
2023-03-24T08:00:32.325Z,54.54
2023-03-24T08:03:05.168Z,54.48
2023-03-24T08:05:52.244Z,54.45
2023-03-24T08:08:21.894Z,54.57
2023-03-24T08:10:50.441Z,54.74
2023-03-24T08:13:18.251Z,54.25
2023-03-24T08:15:46.336Z,53.35
2023-03-24T08:18:14.182Z,53.31
2023-03-24T08:20:41.937Z,53.40
2023-03-24T08:23:09.923Z,52.91
2023-03-24T08:25:38.117Z,52.52
2023-03-24T08:28:06.162Z,51.85
2023-03-24T08:30:33.980Z,51.25
2023-03-24T08:33:02.797Z,51.13
2023-03-24T08:35:37.072Z,51.08
2023-03-24T08:38:07.265Z,50.37
2023-03-24T08:40:38.206Z,50.10
2023-03-24T08:43:09.061Z,50.15
2023-03-24T08:45:37.490Z,50.07
2023-03-24T08:48:07.742Z,48.89
2023-03-24T08:50:39.101Z,48.99
2023-03-24T08:53:07.645Z,49.16
2023-03-24T08:55:37.576Z,48.78
2023-03-24T08:58:05.386Z,48.44
2023-03-24T09:00:32.915Z,47.80
2023-03-24T09:03:01.350Z,46.53
2023-03-24T09:05:41.379Z,46.63
2023-03-24T09:08:00.180Z,45.66
2023-03-24T09:10:27.567Z,46.19
2023-03-24T09:12:55.124Z,45.55
2023-03-24T09:15:23.073Z,45.69
2023-03-24T09:17:50.941Z,46.61
2023-03-24T09:20:18.912Z,46.35
2023-03-24T09:22:47.022Z,45.66
2023-03-24T09:25:20.450Z,45.81
2023-03-24T09:27:48.715Z,43.27
2023-03-24T09:30:18.126Z,44.40
2023-03-24T09:32:46.329Z,42.29
2023-03-24T09:35:15.139Z,42.04
2023-03-24T09:37:43.277Z,42.67
2023-03-24T09:40:24.613Z,43.56
2023-03-24T09:43:06.498Z,43.61
2023-03-24T09:45:39.484Z,43.43
2023-03-24T09:48:12.492Z,43.23
2023-03-24T09:51:07.088Z,42.84
2023-03-24T09:53:51.685Z,41.87
2023-03-24T09:56:22.997Z,41.40
2023-03-24T09:59:07.452Z,42.38
2023-03-24T10:01:35.943Z,41.72
2023-03-24T10:04:07.257Z,41.09
2023-03-24T10:06:41.712Z,41.61
2023-03-24T10:09:31.050Z,39.93
2023-03-24T10:12:22.286Z,41.23
2023-03-24T10:15:24.297Z,40.60
2023-03-24T10:18:12.211Z,40.70
2023-03-24T10:20:50.836Z,40.28
2023-03-24T10:23:36.105Z,39.65
2023-03-24T10:26:38.655Z,39.50
2023-03-24T10:29:26.962Z,40.12
2023-03-24T10:32:03.319Z,38.30
2023-03-24T10:34:33.752Z,38.28
2023-03-24T10:37:04.499Z,39.37
2023-03-24T10:39:43.582Z,38.25
2023-03-24T10:42:02.348Z,38.09
2023-03-24T10:44:30.503Z,36.39
2023-03-24T10:47:02.688Z,37.11
2023-03-24T10:49:30.991Z,37.33
2023-03-24T10:52:06.333Z,37.40
2023-03-24T10:54:33.984Z,36.90
2023-03-24T10:57:05.130Z,36.40
2023-03-24T10:59:41.169Z,37.56
2023-03-24T11:02:30.097Z,36.62
2023-03-24T11:05:01.862Z,37.23
2023-03-24T11:07:40.560Z,36.82
2023-03-24T11:10:18.705Z,37.14
2023-03-24T11:12:57.419Z,36.93
2023-03-24T11:15:29.931Z,37.13
2023-03-24T11:18:16.073Z,36.84
2023-03-24T11:20:57.738Z,37.11
2023-03-24T11:23:40.176Z,34.94
2023-03-24T11:26:19.211Z,36.33
2023-03-24T11:28:54.207Z,36.78
2023-03-24T11:31:29.962Z,36.70
2023-03-24T11:34:08.766Z,36.92
2023-03-24T11:36:43.842Z,37.00
2023-03-24T11:39:17.121Z,35.84
2023-03-24T11:42:05.351Z,36.58
2023-03-24T11:44:51.772Z,36.48
2023-03-24T11:47:39.917Z,36.81
2023-03-24T11:50:15.743Z,36.70
2023-03-24T11:52:54.903Z,37.56
2023-03-24T11:55:43.002Z,36.31
2023-03-24T11:58:40.407Z,36.29
2023-03-24T12:01:16.350Z,36.15
2023-03-24T12:04:28.760Z,35.17
2023-03-24T12:07:40.189Z,36.21
2023-03-24T12:10:31.380Z,36.31
2023-03-24T12:13:22.170Z,35.57
2023-03-24T12:16:12.388Z,36.47
2023-03-24T12:19:12.777Z,35.57
2023-03-24T12:21:52.194Z,36.13
2023-03-24T12:24:43.316Z,34.29
2023-03-24T12:27:42.608Z,35.54
2023-03-24T12:30:23.213Z,34.42
2023-03-24T12:33:28.361Z,35.80
2023-03-24T12:36:24.786Z,35.09
2023-03-24T12:39:18.666Z,35.61
2023-03-24T12:42:08.173Z,36.09
2023-03-24T12:45:05.112Z,35.33
2023-03-24T12:48:17.884Z,35.35
2023-03-24T12:51:00.176Z,35.21
2023-03-24T12:53:40.727Z,34.74
2023-03-24T12:56:18.664Z,34.97
2023-03-24T12:59:02.526Z,34.72
2023-03-24T13:01:50.550Z,33.91
2023-03-24T13:04:32.458Z,33.80
2023-03-24T13:07:14.163Z,31.92
2023-03-24T13:09:59.086Z,33.45
2023-03-24T13:12:55.088Z,33.45
2023-03-24T13:15:43.422Z,33.55
2023-03-24T13:18:16.723Z,33.88
2023-03-24T13:21:03.547Z,32.85
2023-03-24T13:24:09.996Z,33.88
2023-03-24T13:26:49.132Z,33.49
2023-03-24T13:29:49.687Z,34.02
2023-03-24T13:32:26.225Z,34.05
2023-03-24T13:35:26.757Z,33.66
2023-03-24T13:38:03.789Z,34.14
2023-03-24T13:40:33.876Z,34.29
2023-03-24T13:43:16.504Z,34.38
2023-03-24T13:45:51.888Z,33.54
2023-03-24T13:48:33.246Z,33.53
2023-03-24T13:51:15.019Z,33.66
2023-03-24T13:54:08.859Z,33.74
2023-03-24T13:56:41.917Z,33.92
2023-03-24T13:59:12.784Z,33.83
2023-03-24T14:01:45.001Z,33.21
2023-03-24T14:04:24.278Z,32.22
2023-03-24T14:06:59.782Z,33.35
2023-03-24T14:09:30.587Z,33.26
2023-03-24T14:12:17.502Z,32.73
2023-03-24T14:15:07.160Z,33.03
2023-03-24T14:17:34.620Z,33.35
2023-03-24T14:20:11.083Z,33.23
2023-03-24T14:22:47.820Z,33.44
2023-03-24T14:25:26.479Z,33.61
2023-03-24T14:28:43.791Z,33.95
2023-03-24T14:31:16.956Z,34.51
2023-03-24T14:34:01.140Z,34.07
2023-03-24T14:36:41.657Z,33.86
2023-03-24T14:39:45.779Z,34.08
2023-03-24T14:42:34.859Z,34.02
2023-03-24T14:45:14.375Z,33.29
2023-03-24T14:47:40.906Z,33.56
2023-03-24T14:50:22.073Z,33.81
2023-03-24T14:53:03.103Z,34.29
2023-03-24T14:55:31.660Z,34.55
2023-03-24T14:58:13.396Z,34.42
2023-03-24T15:00:57.928Z,34.34
2023-03-24T15:03:49.648Z,34.04
2023-03-24T15:06:22.197Z,33.61
2023-03-24T15:08:58.803Z,33.68
2023-03-24T15:11:36.847Z,33.85
2023-03-24T15:14:09.935Z,33.94
2023-03-24T15:16:38.190Z,33.57
2023-03-24T15:19:17.137Z,33.54
2023-03-24T15:21:51.379Z,34.16
2023-03-24T15:24:30.457Z,34.01
2023-03-24T15:27:19.756Z,34.55
2023-03-24T15:29:55.460Z,35.06
2023-03-24T15:32:26.611Z,35.27
2023-03-24T15:34:58.439Z,35.13
2023-03-24T15:37:34.004Z,35.50
2023-03-24T15:40:15.418Z,35.59
2023-03-24T15:42:32.873Z,35.81
2023-03-24T15:45:11.246Z,35.89
2023-03-24T15:47:41.568Z,35.62
2023-03-24T15:50:37.970Z,35.49
2023-03-24T15:53:22.988Z,35.56
2023-03-24T15:56:08.623Z,35.25
2023-03-24T15:58:50.896Z,35.34
2023-03-24T16:01:38.964Z,35.36
2023-03-24T16:04:15.203Z,35.52
2023-03-24T16:06:50.966Z,35.46
2023-03-24T16:09:24.364Z,35.60
2023-03-24T16:11:52.176Z,35.75
2023-03-24T16:14:30.122Z,36.36
2023-03-24T16:17:01.672Z,36.85
2023-03-24T16:19:29.664Z,37.27
2023-03-24T16:21:57.244Z,37.60
2023-03-24T16:24:25.462Z,38.20
2023-03-24T16:26:53.043Z,38.77
2023-03-24T16:29:23.542Z,39.16
2023-03-24T16:31:55.224Z,39.20
2023-03-24T16:34:23.492Z,39.35
2023-03-24T16:36:53.745Z,39.64
2023-03-24T16:39:27.784Z,40.23
2023-03-24T16:41:56.244Z,40.44
2023-03-24T16:44:25.192Z,40.72
2023-03-24T16:46:54.589Z,40.97
2023-03-24T16:49:23.857Z,41.33
2023-03-24T16:51:53.386Z,41.57
2023-03-24T16:54:21.251Z,41.73
2023-03-24T16:56:49.104Z,41.96
2023-03-24T16:59:17.112Z,42.21
2023-03-24T17:01:46.819Z,42.53
2023-03-24T17:04:18.492Z,42.82
2023-03-24T17:06:50.151Z,43.22
2023-03-24T17:09:18.295Z,43.51
2023-03-24T17:11:51.290Z,43.80
2023-03-24T17:14:19.094Z,43.99
2023-03-24T17:16:49.209Z,44.54
2023-03-24T17:19:21.397Z,44.33
2023-03-24T17:21:54.240Z,44.62
2023-03-24T17:24:23.646Z,44.74
2023-03-24T17:26:51.347Z,45.08
2023-03-24T17:29:18.961Z,45.47
2023-03-24T17:31:46.613Z,45.82
2023-03-24T17:36:48.675Z,46.44
2023-03-24T17:39:17.794Z,46.71
2023-03-24T17:41:45.949Z,47.02
2023-03-24T17:44:14.447Z,47.26
2023-03-24T17:46:42.254Z,47.47
2023-03-24T17:49:09.818Z,47.72
2023-03-24T17:51:37.418Z,47.93
2023-03-24T17:54:05.631Z,48.14
2023-03-24T17:56:33.207Z,48.33
2023-03-24T17:59:02.770Z,48.50
2023-03-24T18:01:33.069Z,48.83
2023-03-24T18:04:01.233Z,48.92
2023-03-24T18:06:30.231Z,49.02
2023-03-24T18:08:58.286Z,49.25
2023-03-24T18:11:26.024Z,49.30
2023-03-24T18:13:53.909Z,49.44
2023-03-24T18:16:22.383Z,49.65
2023-03-24T18:18:50.859Z,49.65
2023-03-24T18:21:19.327Z,49.71
2023-03-24T18:23:47.661Z,49.90
2023-03-24T18:26:17.032Z,50.13
2023-03-24T18:28:45.781Z,50.39
2023-03-24T18:31:18.257Z,50.56
2023-03-24T18:33:48.946Z,50.71
2023-03-24T18:36:20.382Z,50.72
2023-03-24T18:38:48.885Z,50.85
2023-03-24T18:41:17.737Z,51.02
2023-03-24T18:43:47.420Z,51.15
2023-03-24T18:46:16.120Z,51.16
2023-03-24T18:48:44.150Z,51.17
2023-03-24T18:51:12.377Z,51.13
2023-03-24T18:53:40.454Z,51.20
2023-03-24T18:56:08.839Z,51.18
2023-03-24T18:58:40.159Z,51.12
2023-03-24T19:01:11.428Z,51.05
2023-03-24T19:03:42.450Z,51.00
2023-03-24T19:06:12.856Z,51.03
2023-03-24T19:08:44.730Z,51.04
2023-03-24T19:11:15.374Z,51.03
2023-03-24T19:13:47.806Z,51.06
2023-03-24T19:16:16.808Z,51.12
2023-03-24T19:18:44.439Z,51.15
2023-03-24T19:21:12.730Z,51.11
2023-03-24T19:23:41.959Z,51.14
2023-03-24T19:26:09.887Z,51.17
2023-03-24T19:28:37.790Z,51.18
2023-03-24T19:31:15.379Z,51.27
2023-03-24T19:33:44.567Z,51.31
2023-03-24T19:36:13.422Z,51.26
2023-03-24T19:38:41.605Z,51.41
2023-03-24T19:41:13.447Z,51.30
2023-03-24T19:43:41.590Z,51.36
2023-03-24T19:46:09.550Z,51.37
2023-03-24T19:48:37.466Z,51.40
2023-03-24T19:51:05.613Z,51.51
2023-03-24T19:53:33.409Z,51.62
2023-03-24T19:56:01.575Z,51.79
2023-03-24T19:58:29.821Z,52.03
2023-03-24T20:00:57.576Z,52.06
2023-03-24T20:03:25.566Z,52.13
2023-03-24T20:05:53.690Z,52.29
2023-03-24T20:08:25.130Z,52.38
2023-03-24T20:10:52.729Z,52.55
2023-03-24T20:13:20.369Z,52.69
2023-03-24T20:15:48.492Z,52.77
2023-03-24T20:18:16.374Z,52.90
2023-03-24T20:20:44.095Z,53.07
2023-03-24T20:23:11.819Z,53.19
2023-03-24T20:25:43.203Z,53.24
2023-03-24T20:28:10.915Z,53.27
2023-03-24T20:30:39.875Z,53.32
2023-03-24T20:33:07.625Z,53.33
2023-03-24T20:35:36.524Z,53.50
2023-03-24T20:38:04.437Z,53.54
2023-03-24T20:40:32.330Z,53.60
2023-03-24T20:43:00.008Z,53.66
2023-03-24T20:45:29.498Z,53.73
2023-03-24T20:47:59.129Z,53.73
2023-03-24T20:50:27.142Z,53.85
2023-03-24T20:52:55.811Z,53.91
2023-03-24T20:55:23.442Z,54.05
2023-03-24T20:57:51.143Z,54.07
2023-03-24T21:00:19.992Z,54.18
2023-03-24T21:02:47.658Z,54.23
2023-03-24T21:05:15.792Z,54.25
2023-03-24T21:07:44.995Z,54.24
2023-03-24T21:10:13.238Z,54.25
2023-03-24T21:12:53.658Z,54.32
2023-03-24T21:15:10.896Z,54.40
2023-03-24T21:17:39.765Z,54.40
2023-03-24T21:20:10.819Z,54.48
2023-03-24T21:22:49.908Z,54.65
2023-03-24T21:25:17.496Z,54.72
2023-03-24T21:27:45.034Z,54.80
2023-03-24T21:30:13.293Z,54.98
2023-03-24T21:32:41.041Z,55.02
2023-03-24T21:35:10.896Z,55.14
2023-03-24T21:37:40.361Z,55.24
2023-03-24T21:40:10.059Z,55.36
2023-03-24T21:42:39.668Z,55.42
2023-03-24T21:45:14.915Z,55.49
2023-03-24T21:47:48.164Z,55.56
2023-03-24T21:50:20.750Z,55.66
2023-03-24T21:52:54.173Z,55.63
2023-03-24T21:55:24.794Z,55.70
2023-03-24T21:57:53.161Z,55.73
2023-03-24T22:00:23.965Z,55.76
2023-03-24T22:02:56.115Z,55.87
2023-03-24T22:05:27.274Z,55.92
2023-03-24T22:07:55.429Z,55.98
2023-03-24T22:10:23.240Z,56.04
2023-03-24T22:12:52.788Z,56.11
2023-03-24T22:15:22.003Z,56.13
2023-03-24T22:17:50.419Z,56.18
2023-03-24T22:20:19.570Z,56.24
2023-03-24T22:22:47.618Z,56.25
2023-03-24T22:25:18.198Z,56.33
2023-03-24T22:27:48.585Z,56.45
2023-03-24T22:30:17.540Z,56.45
2023-03-24T22:32:45.122Z,56.52
2023-03-24T22:35:12.704Z,56.54
2023-03-24T22:37:41.072Z,56.61
2023-03-24T22:40:09.938Z,56.66
2023-03-24T22:42:37.964Z,56.72
2023-03-24T22:45:07.747Z,56.75
2023-03-24T22:47:35.736Z,56.83
2023-03-24T22:50:04.419Z,56.87
2023-03-24T22:52:31.988Z,56.89
2023-03-24T22:54:59.493Z,56.95
2023-03-24T22:57:27.376Z,56.99
2023-03-24T22:59:56.383Z,57.18
2023-03-24T23:02:24.411Z,57.15
2023-03-24T23:04:52.649Z,57.23
2023-03-24T23:07:22.284Z,57.29
2023-03-24T23:09:49.834Z,57.45
2023-03-24T23:12:17.431Z,57.47
2023-03-24T23:14:45.872Z,57.55
2023-03-24T23:17:15.166Z,57.69
2023-03-24T23:19:43.034Z,57.77
2023-03-24T23:22:10.689Z,57.96
2023-03-24T23:24:38.914Z,58.07
2023-03-24T23:27:07.163Z,58.09
2023-03-24T23:29:40.122Z,58.16
2023-03-24T23:32:08.571Z,58.15
2023-03-24T23:34:37.535Z,58.16
2023-03-24T23:37:05.555Z,58.13
2023-03-24T23:39:34.972Z,58.10
2023-03-24T23:42:04.614Z,58.10
2023-03-24T23:44:32.434Z,58.10
2023-03-24T23:46:59.885Z,58.17
2023-03-24T23:49:27.355Z,58.27
2023-03-24T23:51:55.118Z,58.38
2023-03-24T23:54:22.908Z,58.39
2023-03-24T23:56:50.896Z,58.43
2023-03-24T23:59:18.550Z,58.45
